Airfield :
LOGIN :

Register | Disclaimer

   EN    FR    IT 

 










Legend :    VFR   Marginal VFR   IFR   Intensive IFR   Very Intensive IFR
Visi :
Ceiling :
>= 8 km
>= 3000ft
5 to 8 km
1000 to 3000 ft
1500m to 5 km
500 to 1000 ft
800 to 1500m
200 to 500 ft
< 800m
< 200 ft
Symbols :   Thunderstorms  Fog  Heavy snow  Heavy precipitations  Wind > 20 kt
SIGMETs :     Misc.  Thunderstorms  Icing  Turbulence  Mountain Waves  Volcanic Ashes






- Airport Elevation : 273 ft


EGXT - RAF Wittering Stamford

CURRENT METAR :
  • 181320Z 24013KT 9999 FEW029 OVC110 12/02 Q1021 RMK BLU

EXPIRED METARs :
  • 181250Z 25014KT 9999 FEW029 OVC120 11/02 Q1021 RMK BLU
  • 181220Z 25012KT 9999 FEW029 OVC120 11/03 Q1022 RMK BLU
  • 181150Z 25012KT 9999 FEW029 BKN120 10/02 Q1022 RMK BLU
  • 181120Z 24011KT 9999 FEW029 BKN140 10/02 Q1022 RMK BLU
  • 181050Z 25011KT 9999 FEW029 BKN140 10/02 Q1022 RMK BLU
  • 181020Z 26009KT 9999 FEW024 BKN180 09/02 Q1022 RMK BLU
  • 180950Z 25006KT 9999 FEW020 BKN180 09/03 Q1022 RMK BLU
  • 180920Z 28007KT 9999 SCT018 08/03 Q1023 RMK WHT
  • 180850Z 29005KT 9999 BKN016 08/03 Q1023 RMK WHT

TAF TAF EGXT
Valid from the 18 at 12:00 until the 18 at 18:00 UTC


181044Z 1812/1818 26012KT 9999 FEW035
PROB30
TEMPO 1815/1818 26015G25KT
TEMPO 1816/1818 7000 -RA SCT022



MET'MAP, your aeronautical weather chart ! - Copyright ORBIFLY December 2007 - Disclaimer

ORBIFLY MET'MAP TEAM :

Programming & Development : Alexandra Zaïnal
Original concept : Baudouin d'Aumeries
Technical & hardware support : Manuel Goepfert
Assistance : Marc-Olivier Méhu




SOURCES & CREDITS :

   NOAA